Suakin — ZCIL — position and weather

sailwx.info

Track history (hours):
 
Tides and Currents Weather Stations Pressure Air Temp Water Temp Dewpoint Dewpoint Depression Visibility Wind Speed Wind Dir Waves Ship Positions

Suakin

Last reported at 2016-Aug-29 14:25 UTC. Time now 2016-Aug-29 14:44 UTC.
Position N 43°42' E 007°20'.

Length 37 m; draft 2.5 m.

Type: Pleasure craft. MMSI: 319897000.

Date/timePositionNaut miles runAvg speedWind from/ knotsBaromVisibWave heightAir tempDewpointWater temp
2016-Aug-29 14:25N 43°42' E 007°20'0 0.0
2016-Aug-29 13:34N 43°42' E 007°20'2 1.9
2016-Aug-29 12:34N 43°41' E 007°19'1 1.1
2016-Aug-29 11:21N 43°42' E 007°19'0 0.0
2016-Aug-29 10:33N 43°42' E 007°19'0 0.0
2016-Aug-29 09:27N 43°42' E 007°19'0 0.0
2016-Aug-29 08:34N 43°42' E 007°19'0 0.0
2016-Aug-29 07:33N 43°42' E 007°19'0 0.0
2016-Aug-29 06:33N 43°42' E 007°19'0 0.0
2016-Aug-29 05:33N 43°42' E 007°19'0 0.0
2016-Aug-29 04:33N 43°42' E 007°19'0 0.0
2016-Aug-29 03:33N 43°42' E 007°19'0 0.0
2016-Aug-29 02:33N 43°42' E 007°19'0 0.0
2016-Aug-29 01:33N 43°42' E 007°19'0 0.0
2016-Aug-29 00:33N 43°42' E 007°19'0 0.0
2016-Aug-28 23:33N 43°42' E 007°19'0 0.0
2016-Aug-28 22:33N 43°42' E 007°19'0 0.0
2016-Aug-28 21:32N 43°42' E 007°19'0 0.0
2016-Aug-28 20:33N 43°42' E 007°19'0 0.1
2016-Aug-28 19:33N 43°42' E 007°19'7 6.6
2016-Aug-28 18:33N 43°38' E 007°26'1110.6
2016-Aug-28 17:33N 43°32' E 007°38'1111.0
2016-Aug-28 16:33N 43°26' E 007°51'1111.1
2016-Aug-28 15:32N 43°20' E 008°05'1210.9
2016-Aug-28 14:25N 43°14' E 008°18'3410.9
2016-Aug-28 11:16N 42°54' E 008°56'910.8
2016-Aug-28 10:26N 42°48' E 009°07'11 0.8
2016-Aug-27 20:28N 42°41' E 009°17'0 0.0
2016-Aug-27 19:30N 42°41' E 009°17'0 0.0
2016-Aug-27 14:09N 42°41' E 009°17'610.0
2016-Aug-27 13:33N 42°47' E 009°18'1110.8
2016-Aug-27 12:33N 42°57' E 009°19'9 8.8
2016-Aug-27 11:33N 42°60' E 009°31'1111.1
2016-Aug-27 10:33N 42°57' E 009°46'1110.7
2016-Aug-27 09:33N 42°54' E 009°60'1110.6
2016-Aug-27 08:33N 42°51' E 010°13'5 0.6
2016-Aug-26 23:16N 42°49' E 010°20'0 0.0
2016-Aug-26 16:28N 42°49' E 010°20'0 0.0
2016-Aug-25 11:19N 42°49' E 010°20'4 5.0
2016-Aug-25 10:32N 42°52' E 010°24'17 0.4
2016-Aug-23 13:11N 42°53' E 010°47'0 0.0
2016-Aug-23 12:32N 42°53' E 010°47'0 0.0
2016-Aug-22 15:33N 42°53' E 010°47'  
Track history (hours):
 
Tides and Currents Weather Stations Pressure Air Temp Water Temp Dewpoint Dewpoint Depression Visibility Wind Speed Wind Dir Waves Ship Positions

Suakin

Last reported at 2016-Aug-29 14:25 UTC. Time now 2016-Aug-29 14:44 UTC.
Position N 43°42' E 007°20'.

Length 37 m; draft 2.5 m.

Type: Pleasure craft. MMSI: 319897000.

Date/timePositionNaut miles runAvg speedWind from/ knotsBaromVisibWave heightAir tempDewpointWater temp
2016-Aug-29 14:25N 43°42' E 007°20'0 0.0
2016-Aug-29 13:34N 43°42' E 007°20'2 1.9
2016-Aug-29 12:34N 43°41' E 007°19'1 1.1
2016-Aug-29 11:21N 43°42' E 007°19'0 0.0
2016-Aug-29 10:33N 43°42' E 007°19'0 0.0
2016-Aug-29 09:27N 43°42' E 007°19'0 0.0
2016-Aug-29 08:34N 43°42' E 007°19'0 0.0
2016-Aug-29 07:33N 43°42' E 007°19'0 0.0
2016-Aug-29 06:33N 43°42' E 007°19'0 0.0
2016-Aug-29 05:33N 43°42' E 007°19'0 0.0
2016-Aug-29 04:33N 43°42' E 007°19'0 0.0
2016-Aug-29 03:33N 43°42' E 007°19'0 0.0
2016-Aug-29 02:33N 43°42' E 007°19'0 0.0
2016-Aug-29 01:33N 43°42' E 007°19'0 0.0
2016-Aug-29 00:33N 43°42' E 007°19'0 0.0
2016-Aug-28 23:33N 43°42' E 007°19'0 0.0
2016-Aug-28 22:33N 43°42' E 007°19'0 0.0
2016-Aug-28 21:32N 43°42' E 007°19'0 0.0
2016-Aug-28 20:33N 43°42' E 007°19'0 0.1
2016-Aug-28 19:33N 43°42' E 007°19'7 6.6
2016-Aug-28 18:33N 43°38' E 007°26'1110.6
2016-Aug-28 17:33N 43°32' E 007°38'1111.0
2016-Aug-28 16:33N 43°26' E 007°51'1111.1
2016-Aug-28 15:32N 43°20' E 008°05'1210.9
2016-Aug-28 14:25N 43°14' E 008°18'3410.9
2016-Aug-28 11:16N 42°54' E 008°56'910.8
2016-Aug-28 10:26N 42°48' E 009°07'11 0.8
2016-Aug-27 20:28N 42°41' E 009°17'0 0.0
2016-Aug-27 19:30N 42°41' E 009°17'0 0.0
2016-Aug-27 14:09N 42°41' E 009°17'610.0
2016-Aug-27 13:33N 42°47' E 009°18'1110.8
2016-Aug-27 12:33N 42°57' E 009°19'9 8.8
2016-Aug-27 11:33N 42°60' E 009°31'1111.1
2016-Aug-27 10:33N 42°57' E 009°46'1110.7
2016-Aug-27 09:33N 42°54' E 009°60'1110.6
2016-Aug-27 08:33N 42°51' E 010°13'5 0.6
2016-Aug-26 23:16N 42°49' E 010°20'0 0.0
2016-Aug-26 16:28N 42°49' E 010°20'0 0.0
2016-Aug-25 11:19N 42°49' E 010°20'4 5.0
2016-Aug-25 10:32N 42°52' E 010°24'17 0.4
2016-Aug-23 13:11N 42°53' E 010°47'0 0.0
2016-Aug-23 12:32N 42°53' E 010°47'0 0.0
2016-Aug-22 15:33N 42°53' E 010°47'  

Dump ship's entire track history